ニューヨーク/JFK の空港の天気 - METARとTAF

ジョン・F・ケネディ国際空港 ( KJFK / JFK ) - アメリカ ニューヨーク州ニューヨーク
飛行場実況気象(Metar)
観測時間10/22 10:51 EDT (10/22 14:51 UTC)
風向・風速東 3m/s
視程3200m
天気現象もや
全天の8割程度の雲 雲底高度 150m
全天を覆う雲 雲底高度 370m
気温18.9℃
湿度96%
気圧1025hPa
METARKJFK 221451Z 08005KT 2SM R04R/5500VP6000FT BR BKN005 OVC012 19/18 A3027 RMK AO2 SFC VIS 4 SLP250 T01890183 51006 $
過去の天気等 Google飛行場航空写真 Wunderground天気予報

過去48時間のMETAR

飛行場予報(TAF)
発表時間: 10/22 10:32 EDT (10/22 14:32 UTC)
予報対象時間: 22日11時 EDT ~ 23日14時 EDT
風向・風速不定 2m/s
視程6440m
天気現象もや
全天の8割程度の雲 雲底高度 180m
全天を覆う雲 雲底高度 460m
22日11時 EDT ~ 22日14時 EDT に一時的に
全天の4割程度の雲 雲底高度 180m
全天の4割程度の雲 雲底高度 460m
全天の8割程度の雲 雲底高度 910m
22日14時 EDT から
風向・風速不定 2m/s
視程10km以上
全天の8割程度の雲 雲底高度 910m
22日19時 EDT から
風向・風速南南東 2m/s
視程10km以上
全天の4割程度の雲 雲底高度 240m
全天の8割程度の雲 雲底高度 460m
22日23時 EDT から
風向・風速不定 2m/s
視程10km以上
天気現象もや
全天の4割程度の雲 雲底高度 120m
全天の8割程度の雲 雲底高度 270m
23日2時 EDT から
風向・風速東南東 3m/s
視程1610m
天気現象もや
全天の8割程度の雲 雲底高度 120m
23日10時 EDT から
風向・風速東南東 3m/s
視程3220m
天気現象もや
全天を覆う雲 雲底高度 240m
23日12時 EDT から
風向・風速東南東 4m/s
視程8050m
天気現象もや
全天を覆う雲 雲底高度 460m
KJFK 221432Z 2215/2318 VRB03KT 4SM BR BKN006 OVC015
TEMPO 2215/2218 SCT006 SCT015 BKN030
FM221800 VRB03KT P6SM BKN030
FM222300 16004KT P6SM SCT008 BKN015
FM230300 VRB03KT 6SM BR SCT004 BKN009
FM230600 11005KT 1SM BR BKN004
FM231400 11006KT 2SM BR OVC008
FM231600 11007KT 5SM BR OVC015